Time;durP1;ratioP1;P1;durP2;ratioP2;P2;SDS_P1;SDS_P2;PMS_P1;PMS_P2;Temp;Humidity;BMP_temperature;BMP_pressure;BME280_temperature;BME280_humidity;BME280_pressure;Samples;Min_cycle;Max_cycle;Signal;HPM_P1;HPM_P2
2022/09/10 00:01:40;;;;;;;21.52;14.55;;;;;;;16.86;100.00;100812.63;2615321;36;20026;-55
2022/09/10 00:04:11;;;;;;;21.70;14.00;;;;;;;16.81;100.00;100811.31;2615790;36;20038;-55
2022/09/10 00:06:40;;;;;;;25.25;14.73;;;;;;;16.92;100.00;100806.50;2616058;36;20547;-56
2022/09/10 00:09:13;;;;;;;23.52;14.40;;;;;;;16.92;100.00;100817.38;2615421;36;20041;-55
2022/09/10 00:11:44;;;;;;;18.20;12.70;;;;;;;16.82;100.00;100818.41;2615480;36;20354;-55
2022/09/10 00:14:16;;;;;;;22.35;14.07;;;;;;;16.91;100.00;100818.41;2615866;36;20026;-56
2022/09/10 00:16:45;;;;;;;21.67;13.18;;;;;;;16.94;100.00;100815.31;2615672;36;20151;-57
2022/09/10 00:19:13;;;;;;;22.88;13.07;;;;;;;16.96;100.00;100807.81;2615304;36;20034;-54
2022/09/10 00:21:43;;;;;;;22.52;13.05;;;;;;;16.84;100.00;100810.06;2614992;36;20555;-57
2022/09/10 00:24:14;;;;;;;19.15;13.25;;;;;;;16.88;100.00;100806.00;2614609;36;20042;-53
2022/09/10 00:26:43;;;;;;;16.38;12.13;;;;;;;16.90;100.00;100805.84;2611524;36;20034;-56
2022/09/10 00:29:14;;;;;;;18.75;12.90;;;;;;;16.91;100.00;100811.09;2607557;36;20582;-56
2022/09/10 00:31:43;;;;;;;20.63;12.63;;;;;;;16.96;100.00;100813.25;2607250;36;20041;-55
2022/09/10 00:34:13;;;;;;;20.42;12.60;;;;;;;17.02;100.00;100812.56;2608844;36;20038;-56
2022/09/10 00:36:45;;;;;;;20.58;12.50;;;;;;;17.06;100.00;100803.00;2614675;36;20035;-56
2022/09/10 00:39:21;;;;;;;18.00;11.27;;;;;;;17.10;100.00;100812.50;2613544;31;20034;-57
2022/09/10 00:41:51;;;;;;;16.80;11.63;;;;;;;16.91;100.00;100815.69;2613411;36;20031;-53
2022/09/10 00:44:50;;;;;;;20.13;11.43;;;;;;;17.08;100.00;100805.56;2614342;31;20114;-56
2022/09/10 00:47:23;;;;;;;16.02;10.30;;;;;;;17.21;100.00;100810.38;2615045;36;20027;-57
2022/09/10 00:49:58;;;;;;;15.40;10.77;;;;;;;17.16;100.00;100811.78;2614187;36;20046;-55
2022/09/10 00:52:28;;;;;;;16.38;9.38;;;;;;;17.08;100.00;100800.97;2614793;36;20077;-56
2022/09/10 00:54:59;;;;;;;17.67;10.90;;;;;;;17.23;100.00;100805.63;2613921;36;20529;-53
2022/09/10 00:57:29;;;;;;;15.85;10.18;;;;;;;17.09;100.00;100804.53;2614540;36;20555;-54
2022/09/10 01:00:11;;;;;;;20.02;10.63;;;;;;;17.04;100.00;100805.06;2614397;36;20122;-55
2022/09/10 01:02:39;;;;;;;19.38;10.98;;;;;;;17.07;100.00;100812.03;2614290;36;20034;-56
2022/09/10 01:05:10;;;;;;;19.10;11.55;;;;;;;16.95;100.00;100806.16;2614759;36;20566;-56
2022/09/10 01:07:39;;;;;;;19.35;10.68;;;;;;;16.92;100.00;100804.63;2614034;36;20046;-57
2022/09/10 01:10:14;;;;;;;17.13;11.32;;;;;;;16.92;100.00;100801.09;2614474;36;20114;-54
2022/09/10 01:13:02;;;;;;;16.05;9.63;;;;;;;16.84;100.00;100798.38;2614019;36;20023;-54
2022/09/10 01:15:41;;;;;;;15.02;9.55;;;;;;;16.86;100.00;100797.16;2609422;36;20159;-57
2022/09/10 01:18:27;;;;;;;18.85;11.07;;;;;;;16.82;100.00;100798.53;2611113;36;20030;-57
2022/09/10 01:21:21;;;;;;;18.77;10.63;;;;;;;16.80;100.00;100798.72;2615009;36;20046;-58
2022/09/10 01:24:13;;;;;;;18.60;11.02;;;;;;;16.80;100.00;100809.59;2615112;36;20046;-54
2022/09/10 01:27:15;;;;;;;19.88;11.00;;;;;;;16.87;100.00;100809.78;2614169;36;20155;-55
2022/09/10 01:29:54;;;;;;;15.95;10.80;;;;;;;16.85;100.00;100802.78;2614692;36;20045;-51
2022/09/10 01:32:28;;;;;;;20.27;10.33;;;;;;;16.93;100.00;100810.91;2614175;31;20073;-54
2022/09/10 01:35:06;;;;;;;17.85;10.85;;;;;;;16.90;100.00;100811.25;2614420;36;20355;-52
2022/09/10 01:37:39;;;;;;;16.50;10.45;;;;;;;16.92;100.00;100814.66;2615782;36;20424;-55
2022/09/10 01:40:09;;;;;;;16.25;11.02;;;;;;;16.78;100.00;100808.06;2614494;31;20065;-52
2022/09/10 01:42:40;;;;;;;15.95;10.68;;;;;;;16.66;100.00;100802.19;2615021;36;20074;-52
2022/09/10 01:45:13;;;;;;;19.00;10.85;;;;;;;16.70;100.00;100806.25;2614760;36;20671;-52
2022/09/10 01:48:14;;;;;;;25.83;11.68;;;;;;;16.50;100.00;100805.81;2614455;31;20041;-56
2022/09/10 01:50:47;;;;;;;20.55;11.27;;;;;;;16.57;100.00;100808.69;2614467;31;20034;-49
2022/09/10 01:53:41;;;;;;;21.20;11.10;;;;;;;16.64;100.00;100806.97;2614690;31;20044;-50
2022/09/10 01:56:24;;;;;;;22.90;12.10;;;;;;;16.69;100.00;100807.28;2613328;36;20046;-51
2022/09/10 01:58:54;;;;;;;20.98;11.80;;;;;;;16.60;100.00;100808.34;2614837;36;20023;-51
2022/09/10 02:01:30;;;;;;;17.73;11.50;;;;;;;16.59;100.00;100812.06;2614124;36;20034;-49
2022/09/10 02:04:02;;;;;;;21.38;12.60;;;;;;;16.44;100.00;100810.13;2614831;31;20029;-52
2022/09/10 02:06:36;;;;;;;20.17;11.38;;;;;;;16.45;100.00;100803.66;2614394;36;20034;-51
2022/09/10 02:09:06;;;;;;;21.13;12.18;;;;;;;16.48;100.00;100805.16;2613881;36;20166;-51
2022/09/10 02:11:46;;;;;;;20.77;12.43;;;;;;;16.45;100.00;100809.06;2613504;36;20034;-51
2022/09/10 02:14:15;;;;;;;21.10;12.57;;;;;;;16.56;100.00;100815.16;2614860;36;20435;-48
2022/09/10 02:16:47;;;;;;;;;;;;;;;16.50;100.00;100811.25;2615150;36;20042;-52
2022/09/10 02:19:18;;;;;;;23.23;13.75;;;;;;;16.44;100.00;100815.56;2614025;36;19962;-53
2022/09/10 02:21:47;;;;;;;24.05;13.00;;;;;;;16.62;100.00;100809.00;2614568;36;20038;-55
2022/09/10 02:24:15;;;;;;;21.88;12.23;;;;;;;16.49;100.00;100816.88;2614388;36;20122;-49
2022/09/10 02:26:46;;;;;;;21.35;13.07;;;;;;;16.56;100.00;100812.44;2614587;36;20042;-52
2022/09/10 02:29:16;;;;;;;26.80;13.82;;;;;;;16.51;100.00;100803.97;2614918;36;20041;-51
2022/09/10 02:31:47;;;;;;;22.27;12.48;;;;;;;16.56;100.00;100807.88;2613754;36;20035;-53
2022/09/10 02:34:17;;;;;;;23.45;13.10;;;;;;;16.62;100.00;100811.72;2613684;36;20046;-54
2022/09/10 02:36:45;;;;;;;24.98;13.23;;;;;;;16.56;100.00;100812.44;2614898;36;20044;-55
2022/09/10 02:39:14;;;;;;;23.70;13.83;;;;;;;16.51;100.00;100814.84;2614436;36;20030;-50
2022/09/10 02:41:42;;;;;;;23.15;14.32;;;;;;;16.39;100.00;100814.38;2613092;36;20045;-55
2022/09/10 02:44:10;;;;;;;22.60;13.83;;;;;;;16.37;100.00;100816.41;2613019;36;20037;-56
2022/09/10 02:46:39;;;;;;;27.58;15.00;;;;;;;16.46;100.00;100812.66;2612832;36;20057;-54
2022/09/10 02:49:10;;;;;;;20.05;12.45;;;;;;;16.49;100.00;100816.88;2612771;36;20061;-54
2022/09/10 02:51:40;;;;;;;29.45;14.85;;;;;;;16.43;100.00;100819.28;2613693;36;20023;-49
2022/09/10 02:54:09;;;;;;;23.65;14.35;;;;;;;16.44;100.00;100823.72;2613542;36;20035;-51
2022/09/10 02:56:37;;;;;;;25.55;14.35;;;;;;;16.51;100.00;100825.72;2611617;36;20443;-55
2022/09/10 02:59:05;;;;;;;23.25;14.07;;;;;;;16.66;100.00;100821.22;2608552;36;20566;-49
2022/09/10 03:01:34;;;;;;;22.73;13.27;;;;;;;16.76;100.00;100821.00;2611658;36;20046;-52
2022/09/10 03:04:02;;;;;;;20.30;12.90;;;;;;;16.71;100.00;100818.81;2611442;36;20030;-53
2022/09/10 03:06:33;;;;;;;25.67;13.50;;;;;;;16.65;100.00;100827.66;2611147;36;20286;-53
2022/09/10 03:09:01;;;;;;;23.85;13.75;;;;;;;16.60;100.00;100830.09;2615436;31;20536;-54
2022/09/10 03:11:30;;;;;;;23.33;13.37;;;;;;;16.65;100.00;100822.22;2614694;36;20442;-55
2022/09/10 03:13:58;;;;;;;26.65;14.40;;;;;;;16.69;100.00;100826.28;2615624;31;20513;-55
2022/09/10 03:16:27;;;;;;;20.65;13.65;;;;;;;16.73;100.00;100824.91;2614180;36;20050;-54
2022/09/10 03:18:55;;;;;;;22.42;14.23;;;;;;;16.61;100.00;100815.47;2614703;36;20045;-56
2022/09/10 03:21:25;;;;;;;20.88;13.70;;;;;;;16.72;100.00;100817.78;2615928;36;20451;-53
2022/09/10 03:23:57;;;;;;;24.80;14.40;;;;;;;16.58;100.00;100815.84;2616048;31;20382;-55
2022/09/10 03:26:26;;;;;;;28.10;14.75;;;;;;;16.61;100.00;100807.31;2614859;36;20428;-56
2022/09/10 03:28:55;;;;;;;23.17;14.45;;;;;;;16.61;100.00;100810.03;2615163;36;20030;-55
2022/09/10 03:31:23;;;;;;;26.77;14.70;;;;;;;16.59;100.00;100812.06;2615099;36;20041;-51
2022/09/10 03:33:52;;;;;;;22.27;13.10;;;;;;;16.58;100.00;100804.97;2613790;36;20050;-55
2022/09/10 03:36:21;;;;;;;25.67;16.08;;;;;;;16.51;100.00;100806.69;2615316;31;20151;-51
2022/09/10 03:38:49;;;;;;;;;;;;;;;16.58;100.00;100810.41;2614696;36;20057;-52
2022/09/10 03:41:20;;;;;;;26.23;15.02;;;;;;;16.54;100.00;100803.63;2615476;36;20320;-50
2022/09/10 03:43:48;;;;;;;27.10;15.88;;;;;;;16.53;100.00;100808.19;2615785;31;20563;-56
2022/09/10 03:46:17;;;;;;;26.20;15.63;;;;;;;16.59;100.00;100812.06;2614605;36;20567;-55
2022/09/10 03:48:45;;;;;;;26.80;16.15;;;;;;;16.67;100.00;100816.66;2615592;36;20033;-55
2022/09/10 03:51:14;;;;;;;25.20;16.43;;;;;;;16.73;100.00;100805.91;2616033;31;20536;-52
2022/09/10 03:53:43;;;;;;;27.75;15.85;;;;;;;16.73;100.00;100808.63;2615713;36;20296;-53
2022/09/10 03:56:12;;;;;;;27.02;15.40;;;;;;;16.71;100.00;100810.69;2615077;36;20035;-53
2022/09/10 03:58:43;;;;;;;39.88;17.95;;;;;;;16.69;100.00;100801.84;2616189;36;20458;-55
2022/09/10 04:01:13;;;;;;;25.15;14.98;;;;;;;16.68;100.00;100802.88;2615603;36;21024;-53
2022/09/10 04:03:41;;;;;;;25.35;16.42;;;;;;;16.71;100.00;100804.38;2616118;36;20027;-53
2022/09/10 04:06:11;;;;;;;27.10;15.82;;;;;;;16.78;100.00;100816.22;2614547;36;20042;-50
2022/09/10 04:08:42;;;;;;;29.65;16.17;;;;;;;16.95;100.00;100817.88;2615545;36;20034;-50
2022/09/10 04:11:12;;;;;;;25.48;14.82;;;;;;;16.78;100.00;100803.50;2615748;36;20126;-52
2022/09/10 04:13:43;;;;;;;22.23;14.43;;;;;;;16.80;100.00;100812.31;2616316;36;20130;-50
2022/09/10 04:16:11;;;;;;;24.77;14.38;;;;;;;16.90;100.00;100808.56;2614888;36;20034;-50
2022/09/10 04:18:39;;;;;;;25.80;15.07;;;;;;;16.93;100.00;100800.03;2613501;36;20422;-53
2022/09/10 04:21:08;;;;;;;24.42;14.57;;;;;;;16.90;100.00;100798.53;2612830;36;20034;-51
2022/09/10 04:23:36;;;;;;;24.63;15.07;;;;;;;16.93;100.00;100808.19;2611875;36;20030;-54
2022/09/10 04:26:13;;;;;;;26.10;15.52;;;;;;;16.91;100.00;100807.53;2611308;36;20058;-49
2022/09/10 04:28:44;;;;;;;22.58;13.50;;;;;;;16.91;100.00;100799.38;2611907;36;20026;-56
2022/09/10 04:31:13;;;;;;;24.48;15.27;;;;;;;16.92;100.00;100806.50;2614456;36;20057;-54
2022/09/10 04:33:41;;;;;;;23.25;14.77;;;;;;;16.99;100.00;100804.78;2614159;36;20057;-51
2022/09/10 04:36:11;;;;;;;24.07;14.73;;;;;;;17.05;100.00;100805.91;2614899;36;20034;-53
2022/09/10 04:38:40;;;;;;;25.10;14.90;;;;;;;17.08;100.00;100805.56;2612749;36;20038;-56
2022/09/10 04:41:09;;;;;;;24.38;14.82;;;;;;;17.06;100.00;100807.59;2614214;36;20061;-52
2022/09/10 04:43:38;;;;;;;26.13;15.07;;;;;;;17.12;100.00;100805.03;2612124;36;20035;-51
2022/09/10 04:46:09;;;;;;;27.67;15.55;;;;;;;17.11;100.00;100811.47;2611607;36;20030;-51
2022/09/10 04:48:37;;;;;;;28.25;15.52;;;;;;;17.22;100.00;100807.50;2612895;31;20431;-51
2022/09/10 04:51:07;;;;;;;23.92;15.20;;;;;;;17.31;100.00;100808.28;2612080;36;20026;-51
2022/09/10 04:53:35;;;;;;;24.48;13.95;;;;;;;17.20;100.00;100814.16;2611437;36;20034;-53
2022/09/10 04:56:04;;;;;;;25.87;15.83;;;;;;;17.21;100.00;100815.81;2611153;36;20038;-56
2022/09/10 04:58:32;;;;;;;25.73;15.93;;;;;;;17.17;100.00;100816.19;2614737;36;20038;-49
2022/09/10 05:01:01;;;;;;;24.10;15.18;;;;;;;17.14;100.00;100811.13;2613462;36;20492;-48
2022/09/10 05:03:32;;;;;;;25.67;14.13;;;;;;;17.10;100.00;100809.78;2612258;36;20023;-56
2022/09/10 05:06:00;;;;;;;22.30;14.88;;;;;;;17.13;100.00;100819.47;2611853;36;20061;-51
2022/09/10 05:08:28;;;;;;;26.23;15.17;;;;;;;17.22;100.00;100806.66;2611731;36;20030;-53
2022/09/10 05:10:57;;;;;;;25.90;15.15;;;;;;;17.07;100.00;100818.31;2612152;36;20595;-52
2022/09/10 05:13:26;;;;;;;25.15;14.57;;;;;;;17.17;100.00;100813.47;2612314;36;20034;-52
2022/09/10 05:15:54;;;;;;;23.10;15.05;;;;;;;17.13;100.00;100814.84;2612179;36;20038;-52
2022/09/10 05:18:22;;;;;;;22.67;14.47;;;;;;;17.23;100.00;100809.19;2612382;36;20038;-50
2022/09/10 05:20:53;;;;;;;22.08;14.43;;;;;;;17.26;100.00;100816.97;2612216;36;20416;-55
2022/09/10 05:23:22;;;;;;;23.52;14.13;;;;;;;17.25;100.00;100812.56;2612044;31;20035;-51
2022/09/10 05:25:50;;;;;;;21.92;14.55;;;;;;;17.20;100.00;100814.16;2611719;36;20038;-53
2022/09/10 05:28:19;;;;;;;22.03;13.97;;;;;;;17.15;100.00;100815.53;2612115;36;20458;-51
2022/09/10 05:30:47;;;;;;;23.67;14.18;;;;;;;17.10;100.00;100826.09;2610496;36;20030;-51
2022/09/10 05:33:16;;;;;;;22.40;13.80;;;;;;;17.15;100.00;100818.25;2611684;36;20034;-50
2022/09/10 05:35:44;;;;;;;24.07;14.73;;;;;;;17.05;100.00;100823.09;2612176;36;20030;-53
2022/09/10 05:38:15;;;;;;;24.17;13.33;;;;;;;17.14;100.00;100827.44;2611380;36;20038;-48
2022/09/10 05:40:44;;;;;;;22.13;13.68;;;;;;;17.09;100.00;100819.00;2612221;36;20038;-51
2022/09/10 05:43:13;;;;;;;25.50;14.35;;;;;;;17.09;100.00;100829.88;2611948;36;20058;-49
2022/09/10 05:45:41;;;;;;;21.65;13.73;;;;;;;17.20;100.00;100830.47;2612281;36;20154;-49
2022/09/10 05:48:10;;;;;;;21.33;12.70;;;;;;;17.05;100.00;100828.53;2611205;36;20042;-54
2022/09/10 05:50:39;;;;;;;22.30;13.38;;;;;;;17.09;100.00;100827.16;2614296;36;20046;-50
2022/09/10 05:53:08;;;;;;;19.52;12.98;;;;;;;17.06;100.00;100827.47;2612372;36;20107;-51
2022/09/10 05:55:39;;;;;;;20.98;12.60;;;;;;;16.99;100.00;100821.09;2613215;36;20050;-48
2022/09/10 05:58:08;;;;;;;17.00;11.00;;;;;;;17.08;100.00;100822.72;2611044;36;20038;-51
2022/09/10 06:00:36;;;;;;;19.47;12.57;;;;;;;17.05;100.00;100823.09;2611243;36;20436;-50
2022/09/10 06:03:04;;;;;;;16.43;10.53;;;;;;;17.15;100.00;100828.28;2611760;36;20053;-51
2022/09/10 06:05:33;;;;;;;15.73;11.40;;;;;;;17.25;100.00;100833.50;2611126;36;20034;-53
2022/09/10 06:08:01;;;;;;;14.90;9.50;;;;;;;17.23;100.00;100822.78;2611525;36;20037;-50
2022/09/10 06:10:31;;;;;;;15.40;10.47;;;;;;;17.23;100.00;100835.56;2611033;36;20059;-49
2022/09/10 06:13:02;;;;;;;14.05;9.35;;;;;;;17.17;100.00;100829.78;2611690;36;20570;-49
2022/09/10 06:15:31;;;;;;;15.75;9.32;;;;;;;17.21;100.00;100833.00;2611545;36;20593;-53
2022/09/10 06:18:00;;;;;;;12.30;8.63;;;;;;;17.15;100.00;100829.13;2611740;36;20046;-49
2022/09/10 06:20:29;;;;;;;14.90;8.85;;;;;;;17.17;100.00;100831.69;2610103;36;20041;-48
2022/09/10 06:22:57;;;;;;;12.80;8.97;;;;;;;17.24;100.00;100829.06;2612401;31;20073;-51
2022/09/10 06:25:26;;;;;;;14.25;9.35;;;;;;;17.15;100.00;100839.16;2611805;36;20026;-49
2022/09/10 06:27:55;;;;;;;12.95;8.90;;;;;;;17.21;100.00;100834.88;2612802;36;20034;-55
2022/09/10 06:30:26;;;;;;;13.50;9.20;;;;;;;17.16;100.00;100846.28;2611276;36;20034;-51
2022/09/10 06:32:54;;;;;;;16.00;10.45;;;;;;;17.14;100.00;100843.75;2611706;36;20042;-49
2022/09/10 06:35:23;;;;;;;17.27;10.77;;;;;;;17.21;100.00;100851.19;2611393;36;20041;-52
2022/09/10 06:37:51;;;;;;;17.05;10.95;;;;;;;17.25;100.00;100849.81;2612662;36;20022;-51
2022/09/10 06:40:20;;;;;;;16.42;10.85;;;;;;;17.18;100.00;100855.09;2611272;31;20022;-54
2022/09/10 06:42:48;;;;;;;20.63;11.63;;;;;;;17.31;100.00;100862.69;2613907;36;20034;-57
2022/09/10 06:45:16;;;;;;;16.73;11.87;;;;;;;17.35;100.00;100850.41;2612916;36;20042;-53
2022/09/10 06:47:47;;;;;;;16.87;11.90;;;;;;;17.32;100.00;100861.66;2612836;36;20093;-51
2022/09/10 06:50:15;;;;;;;20.25;12.52;;;;;;;17.31;100.00;100870.84;2611917;36;20053;-51
2022/09/10 06:52:44;;;;;;;17.90;10.80;;;;;;;17.26;100.00;100863.22;2611481;36;20526;-54
2022/09/10 06:55:12;;;;;;;18.63;11.83;;;;;;;17.40;100.00;100869.78;2611774;36;20023;-53
2022/09/10 06:57:41;;;;;;;19.63;11.60;;;;;;;17.33;100.00;100874.25;2611429;36;20046;-51
2022/09/10 07:00:10;;;;;;;16.73;11.18;;;;;;;17.34;100.00;100875.91;2610767;36;20031;-51
2022/09/10 07:02:39;;;;;;;17.48;11.13;;;;;;;17.39;100.00;100878.97;2611647;36;20551;-50
2022/09/10 07:05:10;;;;;;;18.23;12.05;;;;;;;17.47;100.00;100876.16;2611845;36;20034;-51
2022/09/10 07:07:39;;;;;;;15.95;11.75;;;;;;;17.49;100.00;100873.25;2611875;31;20085;-55
2022/09/10 07:10:08;;;;;;;16.67;11.10;;;;;;;17.47;100.00;100878.88;2611769;36;20042;-54
2022/09/10 07:12:37;;;;;;;;;;;;;;;17.58;100.00;100882.22;2611052;36;20034;-50
2022/09/10 07:15:05;;;;;;;20.40;12.13;;;;;;;17.61;100.00;100882.72;2611399;36;19974;-50
2022/09/10 07:17:36;;;;;;;17.45;10.50;;;;;;;17.64;100.00;100874.19;2611679;36;20423;-51
2022/09/10 07:20:05;;;;;;;18.90;11.73;;;;;;;17.79;100.00;100878.84;2612154;36;20061;-52
2022/09/10 07:22:36;;;;;;;;;;;;;;;17.93;100.00;100886.22;2611608;36;20628;-52
2022/09/10 07:25:06;;;;;;;16.42;11.45;;;;;;;18.08;100.00;100891.72;2612467;36;19981;-54
2022/09/10 07:27:34;;;;;;;16.48;9.85;;;;;;;18.05;100.00;100889.34;2612095;36;20058;-53
2022/09/10 07:30:02;;;;;;;17.08;10.90;;;;;;;18.24;100.00;100887.13;2613108;36;20073;-49
2022/09/10 07:32:34;;;;;;;16.67;10.60;;;;;;;18.27;100.00;100893.06;2613202;31;20126;-51
2022/09/10 07:35:02;;;;;;;13.85;10.43;;;;;;;18.26;100.00;100896.81;2615493;31;20023;-50
2022/09/10 07:37:30;;;;;;;17.88;11.07;;;;;;;18.27;100.00;100903.09;2614964;36;20034;-55
2022/09/10 07:40:02;;;;;;;14.73;10.13;;;;;;;18.34;100.00;100890.41;2612078;36;20058;-54
2022/09/10 07:42:31;;;;;;;15.15;9.73;;;;;;;18.54;100.00;100893.44;2612734;36;20112;-54
2022/09/10 07:44:59;;;;;;;13.17;9.73;;;;;;;18.68;100.00;100894.47;2612459;31;20100;-53
2022/09/10 07:47:28;;;;;;;15.65;9.90;;;;;;;18.67;100.00;100900.97;2612056;36;20038;-52
2022/09/10 07:49:56;;;;;;;14.37;9.23;;;;;;;18.74;100.00;100901.88;2613357;36;20035;-52
2022/09/10 07:52:24;;;;;;;11.77;8.50;;;;;;;18.98;100.00;100910.84;2612609;36;20574;-54
2022/09/10 07:54:52;;;;;;;13.30;9.00;;;;;;;18.99;100.00;100907.06;2613066;36;20307;-52
2022/09/10 07:57:23;;;;;;;12.10;9.00;;;;;;;19.07;100.00;100909.69;2612747;31;20027;-52
2022/09/10 07:59:52;;;;;;;12.88;8.80;;;;;;;19.09;100.00;100907.63;2611843;36;20046;-56
2022/09/10 08:02:21;;;;;;;12.32;7.90;;;;;;;19.20;100.00;100911.75;2613186;36;20652;-57
2022/09/10 08:04:49;;;;;;;12.35;7.35;;;;;;;19.11;100.00;100908.28;2612968;36;20041;-55
2022/09/10 08:07:18;;;;;;;10.03;7.37;;;;;;;19.25;100.00;100915.56;2612164;36;20443;-50
2022/09/10 08:09:47;;;;;;;10.60;6.85;;;;;;;19.54;100.00;100916.53;2602472;36;20035;-52
2022/09/10 08:12:16;;;;;;;7.57;5.97;;;;;;;19.42;100.00;100929.84;2590900;36;20058;-56
2022/09/10 08:14:47;;;;;;;;;;;;;;;19.55;100.00;100928.28;2607586;36;20038;-53
2022/09/10 08:17:15;;;;;;;9.10;6.30;;;;;;;19.53;100.00;100930.38;2607891;36;19950;-53
2022/09/10 08:19:43;;;;;;;7.73;5.83;;;;;;;19.63;100.00;100935.53;2606663;31;20031;-55
2022/09/10 08:22:13;;;;;;;10.95;6.22;;;;;;;19.58;100.00;100938.81;2607762;36;20035;-54
2022/09/10 08:24:41;;;;;;;9.43;6.28;;;;;;;19.55;100.00;100940.06;2606572;36;20033;-50
2022/09/10 08:27:10;;;;;;;9.87;6.50;;;;;;;19.63;100.00;100950.00;2608514;36;20034;-51
2022/09/10 08:29:38;;;;;;;;;;;;;;;19.78;100.00;100952.72;2604517;36;20045;-56
2022/09/10 08:32:11;;;;;;;6.97;6.07;;;;;;;19.88;100.00;100950.50;2605434;36;19977;-54
2022/09/10 08:34:40;;;;;;;9.38;7.47;;;;;;;20.08;100.00;100952.56;2606700;36;20323;-55
2022/09/10 08:37:09;;;;;;;8.18;6.03;;;;;;;20.27;100.00;100951.91;2606472;36;20072;-53
2022/09/10 08:39:37;;;;;;;7.35;5.80;;;;;;;20.43;100.00;100947.16;2609034;36;20035;-53
2022/09/10 08:42:10;;;;;;;7.95;5.75;;;;;;;20.39;100.00;100949.47;2607528;36;20038;-54
2022/09/10 08:44:48;;;;;;;7.07;5.25;;;;;;;20.23;100.00;100950.59;2606096;36;20042;-52
2022/09/10 08:47:28;;;;;;;7.23;4.70;;;;;;;20.37;100.00;100947.97;2606619;36;20123;-55
2022/09/10 08:49:59;;;;;;;5.55;4.40;;;;;;;20.41;100.00;100955.56;2606055;31;20564;-51
2022/09/10 08:52:33;;;;;;;7.03;4.55;;;;;;;20.61;100.00;100955.72;2606837;36;20765;-51
2022/09/10 08:55:13;;;;;;;6.65;3.70;;;;;;;20.81;100.00;100961.34;2607229;36;20034;-53
2022/09/10 08:57:46;;;;;;;5.93;4.20;;;;;;;20.95;100.00;100951.31;2605226;36;20034;-51
2022/09/10 09:00:19;;;;;;;5.53;3.90;;;;;;;21.15;100.00;100956.03;2606103;31;20042;-51
2022/09/10 09:02:56;;;;;;;5.88;4.43;;;;;;;21.29;100.00;100959.66;2606365;36;20027;-53
2022/09/10 09:05:27;;;;;;;5.72;3.67;;;;;;;21.53;100.00;100961.06;2607822;36;20034;-55
2022/09/10 09:07:58;;;;;;;4.78;3.50;;;;;;;20.90;100.00;100964.75;2608107;36;20173;-55
2022/09/10 09:10:43;;;;;;;5.00;3.45;;;;;;;21.17;100.00;100975.81;2614403;36;20424;-54
2022/09/10 09:13:27;;;;;;;4.40;3.30;;;;;;;21.16;100.00;100976.91;2608411;36;20046;-53
2022/09/10 09:16:08;;;;;;;5.35;3.60;;;;;;;21.23;100.00;100975.03;2608884;36;20034;-52
2022/09/10 09:18:53;;;;;;;4.15;3.75;;;;;;;21.32;100.00;100976.53;2613759;31;20520;-53
2022/09/10 09:21:35;;;;;;;4.22;3.60;;;;;;;21.74;100.00;100976.47;2616695;31;20492;-53
2022/09/10 09:24:11;;;;;;;3.67;3.28;;;;;;;21.62;100.00;100981.72;2615363;36;20062;-51
2022/09/10 09:26:40;;;;;;;5.63;3.58;;;;;;;21.56;100.00;100974.34;2615745;36;20030;-52
2022/09/10 09:29:15;;;;;;;3.80;3.20;;;;;;;21.29;100.00;100985.16;2615820;31;20035;-51
2022/09/10 09:31:48;;;;;;;4.75;3.30;;;;;;;21.25;100.00;100989.34;2615147;36;20041;-52
2022/09/10 09:34:23;;;;;;;4.72;3.22;;;;;;;21.38;100.00;100994.06;2613878;36;20551;-52
2022/09/10 09:36:55;;;;;;;5.63;3.78;;;;;;;21.31;100.00;100988.53;2614125;36;20030;-51
2022/09/10 09:39:27;;;;;;;7.47;4.65;;;;;;;21.07;100.00;100986.31;2614147;36;20575;-54
2022/09/10 09:42:06;;;;;;;6.88;4.38;;;;;;;21.15;100.00;100977.94;2612098;36;20420;-49
2022/09/10 09:44:40;;;;;;;5.90;4.03;;;;;;;20.78;100.00;100978.16;2612651;36;20091;-50
2022/09/10 09:47:10;;;;;;;6.80;4.75;;;;;;;20.27;100.00;100995.63;2614549;36;20476;-53
2022/09/10 09:49:41;;;;;;;7.00;5.22;;;;;;;20.60;100.00;100992.31;2612566;36;20035;-52
2022/09/10 09:52:20;;;;;;;6.20;5.28;;;;;;;20.52;100.00;100999.81;2613117;36;20544;-52
2022/09/10 09:54:53;;;;;;;7.50;6.10;;;;;;;20.52;100.00;100995.19;2613416;36;20042;-50
2022/09/10 09:57:22;;;;;;;8.38;6.05;;;;;;;20.85;100.00;100999.22;2614808;36;20725;-51
2022/09/10 09:59:52;;;;;;;7.80;6.38;;;;;;;20.91;100.00;101004.75;2613507;36;20050;-55
2022/09/10 10:02:23;;;;;;;11.80;6.22;;;;;;;21.02;100.00;101007.97;2614039;36;20035;-53
2022/09/10 10:05:06;;;;;;;9.10;5.43;;;;;;;20.77;100.00;101008.44;2611497;36;20042;-51
2022/09/10 10:07:40;;;;;;;8.15;5.93;;;;;;;20.53;100.00;101002.34;2613886;36;20592;-52
2022/09/10 10:10:23;;;;;;;7.32;5.50;;;;;;;20.84;100.00;100995.66;2611000;36;20046;-56
2022/09/10 10:12:54;;;;;;;6.88;5.68;;;;;;;21.23;100.00;101005.16;2596358;36;20575;-56
2022/09/10 10:15:37;;;;;;;8.35;5.93;;;;;;;21.33;100.00;101008.34;2613543;31;20065;-55
2022/09/10 10:18:30;;;;;;;7.13;6.05;;;;;;;21.39;100.00;101006.66;2613422;31;20049;-54
2022/09/10 10:21:18;;;;;;;6.25;4.75;;;;;;;21.07;100.00;101008.19;2613473;31;20126;-53
2022/09/10 10:23:47;;;;;;;9.82;6.15;;;;;;;21.18;100.00;101003.00;2611112;32;20559;-55
2022/09/10 10:26:23;;;;;;;;;;;;;;;21.51;100.00;101005.09;2612321;31;20033;-57
2022/09/10 10:28:53;;;;;;;6.32;4.20;;;;;;;21.76;100.00;101003.66;2611830;36;19957;-57
2022/09/10 10:31:22;;;;;;;7.05;3.92;;;;;;;21.84;100.00;101008.97;2612125;36;20034;-57
2022/09/10 10:34:06;;;;;;;4.60;3.60;;;;;;;21.57;100.00;101008.03;2610772;36;20042;-57
2022/09/10 10:36:46;;;;;;;3.65;3.33;;;;;;;20.84;100.00;101012.06;2610748;36;20038;-57
2022/09/10 10:39:25;;;;;;;4.65;3.20;;;;;;;20.77;100.00;101019.38;2609718;36;20413;-56
2022/09/10 10:42:04;;;;;;;3.50;3.00;;;;;;;20.87;100.00;101019.88;2614874;36;20053;-57
2022/09/10 10:44:52;;;;;;;5.28;3.33;;;;;;;21.33;100.00;101024.78;2615119;36;20058;-57
2022/09/10 10:47:37;;;;;;;4.28;3.35;;;;;;;21.21;100.00;101018.19;2614837;36;20034;-57
2022/09/10 10:50:20;;;;;;;4.43;3.58;;;;;;;21.26;100.00;101025.78;2614401;36;20061;-58
2022/09/10 10:53:20;;;;;;;3.13;2.83;;;;;;;21.12;100.00;101033.09;2614761;31;20050;-57
2022/09/10 10:55:55;;;;;;;4.07;3.35;;;;;;;20.75;100.00;101038.72;2614142;31;20121;-58
2022/09/10 10:58:37;;;;;;;2.63;2.20;;;;;;;20.84;100.00;101036.69;2615329;36;20049;-57
2022/09/10 11:01:11;;;;;;;3.83;2.78;;;;;;;20.83;100.00;101043.19;2615402;36;20034;-58
2022/09/10 11:03:45;;;;;;;4.82;2.95;;;;;;;20.89;100.00;101039.69;2615977;36;20534;-57
2022/09/10 11:06:16;;;;;;;4.40;3.05;;;;;;;21.20;100.00;101045.75;2616780;36;20451;-57
2022/09/10 11:08:52;;;;;;;4.90;3.75;;;;;;;21.13;100.00;101045.72;2616238;36;20030;-56
2022/09/10 11:11:24;;;;;;;4.07;3.15;;;;;;;21.25;100.00;101049.56;2615911;36;20041;-57
2022/09/10 11:13:57;;;;;;;3.70;2.80;;;;;;;21.77;100.00;101040.97;2616182;36;20032;-58
2022/09/10 11:16:30;;;;;;;4.38;3.20;;;;;;;21.56;100.00;101039.22;2616286;36;20027;-58
2022/09/10 11:19:04;;;;;;;2.60;2.40;;;;;;;21.26;100.00;101044.94;2617089;31;20038;-58
2022/09/10 11:21:39;;;;;;;3.13;2.40;;;;;;;20.93;100.00;101049.16;2616496;31;20038;-56
2022/09/10 11:24:13;;;;;;;2.80;2.10;;;;;;;21.03;100.00;101039.78;2615983;36;20034;-57
2022/09/10 11:26:45;;;;;;;2.85;2.38;;;;;;;21.24;100.00;101039.66;2615233;36;20570;-57
2022/09/10 11:29:27;;;;;;;2.58;2.20;;;;;;;21.81;100.00;101036.78;2616555;36;20038;-57
2022/09/10 11:32:04;;;;;;;2.95;2.15;;;;;;;22.37;100.00;101041.13;2616104;36;20022;-57